Terminal Aerodrome Forecast
Issued by NWS

Home | Current Version | Previous Version | Text Only | Print | Product List | Glossary On
Versions: 1 2 3 4 5 6 7 8 9 10 11 12 13 14 15 16 17 18 19
196
FTUS43 KIND 231720
TAFHUF
TAF
KHUF 231720Z 2318/2418 11008KT P6SM BKN080
     FM240100 14009KT P6SM BKN110
     FM240300 16011KT P6SM BKN200 WS020/19040KT
     FM240600 18011G20KT P6SM SCT110 WS020/20045KT
     FM241300 18012G20KT P6SM BKN025=

USA.gov is the U.S. government's official web portal to all federal, state and local government web resources and services.